createdAt,value
2022-08-14T00:00:45.722Z,2.80
2022-08-14T00:03:29.730Z,2.47
2022-08-14T00:06:02.186Z,2.50
2022-08-14T00:08:45.303Z,3.03
2022-08-14T00:11:14.333Z,2.80
2022-08-14T00:13:52.924Z,2.80
2022-08-14T00:16:41.576Z,2.28
2022-08-14T00:19:19.735Z,3.03
2022-08-14T00:21:52.700Z,2.70
2022-08-14T00:24:23.304Z,2.88
2022-08-14T00:27:02.133Z,2.28
2022-08-14T00:29:50.950Z,2.63
2022-08-14T00:35:06.468Z,2.60
2022-08-14T00:37:57.507Z,2.50
2022-08-14T00:40:33.151Z,2.35
2022-08-14T00:43:04.104Z,2.85
2022-08-14T00:45:32.863Z,3.17
2022-08-14T00:48:01.110Z,2.70
2022-08-14T00:50:48.005Z,2.25
2022-08-14T00:53:17.359Z,3.00
2022-08-14T00:55:47.510Z,3.05
2022-08-14T00:58:35.293Z,3.10
2022-08-14T01:01:10.091Z,3.67
2022-08-14T01:03:42.280Z,3.35
2022-08-14T01:06:50.911Z,2.88
2022-08-14T01:09:23.940Z,3.20
2022-08-14T01:12:02.638Z,3.00
2022-08-14T01:14:31.774Z,2.95
2022-08-14T01:17:19.790Z,3.50
2022-08-14T01:20:29.949Z,2.95
2022-08-14T01:22:58.450Z,3.40
2022-08-14T01:25:26.621Z,4.60
2022-08-14T01:27:58.132Z,3.13
2022-08-14T01:30:28.176Z,2.72
2022-08-14T01:32:56.398Z,3.10
2022-08-14T01:36:03.396Z,2.70
2022-08-14T01:38:16.764Z,2.47
2022-08-14T01:40:47.598Z,2.85
2022-08-14T01:43:18.538Z,2.30
2022-08-14T01:45:57.827Z,2.35
2022-08-14T01:51:23.203Z,2.00
2022-08-14T01:53:57.810Z,2.20
2022-08-14T01:57:03.622Z,1.90
2022-08-14T01:59:52.830Z,1.70
2022-08-14T02:02:21.449Z,1.88
2022-08-14T02:04:55.353Z,1.50
2022-08-14T02:07:34.291Z,1.55
2022-08-14T02:10:15.987Z,2.00
2022-08-14T02:12:54.029Z,1.70
2022-08-14T02:15:26.494Z,2.10
2022-08-14T02:17:54.717Z,2.00
2022-08-14T02:20:23.754Z,1.85
2022-08-14T02:22:54.815Z,1.88
2022-08-14T02:25:23.928Z,2.30
2022-08-14T02:28:26.102Z,3.33
2022-08-14T02:30:45.401Z,1.80
2022-08-14T02:33:14.157Z,1.80
2022-08-14T02:35:43.723Z,2.08
2022-08-14T02:38:30.397Z,1.60
2022-08-14T02:41:08.948Z,1.70
2022-08-14T02:43:46.165Z,1.77
2022-08-14T02:46:20.579Z,2.08
2022-08-14T02:49:03.870Z,1.60
2022-08-14T02:51:51.930Z,1.85
2022-08-14T02:54:23.277Z,1.90
2022-08-14T02:57:14.029Z,1.52
2022-08-14T02:59:43.346Z,1.85
2022-08-14T03:02:33.530Z,2.28
2022-08-14T03:05:01.376Z,1.60
2022-08-14T03:07:29.799Z,2.50
2022-08-14T03:10:28.050Z,2.13
2022-08-14T03:13:21.194Z,2.83
2022-08-14T03:15:55.071Z,3.20
2022-08-14T03:18:30.896Z,3.10
2022-08-14T03:21:11.968Z,4.38
2022-08-14T03:24:23.350Z,3.20
2022-08-14T03:26:57.281Z,3.13
2022-08-14T03:29:44.298Z,2.95
2022-08-14T03:32:13.437Z,3.33
2022-08-14T03:34:47.978Z,3.05
2022-08-14T03:38:01.556Z,2.80
2022-08-14T03:40:17.647Z,2.58
2022-08-14T03:42:47.285Z,2.78
2022-08-14T03:48:26.894Z,2.40
2022-08-14T03:51:00.001Z,2.40
2022-08-14T03:53:31.294Z,2.28
2022-08-14T03:56:02.671Z,2.15
2022-08-14T03:58:36.285Z,2.80
2022-08-14T04:01:06.431Z,2.22
2022-08-14T04:03:37.470Z,2.88
2022-08-14T04:06:08.805Z,3.63
2022-08-14T04:08:40.214Z,2.83
2022-08-14T04:11:11.201Z,2.60
2022-08-14T04:14:00.120Z,3.25
2022-08-14T04:16:31.608Z,2.40
2022-08-14T04:19:24.557Z,2.75
2022-08-14T04:21:53.041Z,3.08
2022-08-14T04:24:37.608Z,3.00
2022-08-14T04:27:09.554Z,3.05
2022-08-14T04:29:45.090Z,4.60
2022-08-14T04:33:00.160Z,3.30
2022-08-14T04:35:07.544Z,2.45
2022-08-14T04:37:56.876Z,3.10
2022-08-14T04:40:43.835Z,2.88
2022-08-14T04:43:38.427Z,2.53
2022-08-14T04:46:56.851Z,2.58
2022-08-14T04:49:07.938Z,2.50
2022-08-14T04:51:55.927Z,2.55
2022-08-14T04:54:27.147Z,3.15
2022-08-14T04:56:56.646Z,2.88
2022-08-14T04:59:25.767Z,3.13
2022-08-14T05:01:57.172Z,3.00
2022-08-14T05:04:25.686Z,2.75
2022-08-14T05:06:55.471Z,2.42
2022-08-14T05:09:29.092Z,2.80
2022-08-14T05:13:08.295Z,2.20
2022-08-14T05:14:54.714Z,2.40
2022-08-14T05:17:31.869Z,3.03
2022-08-14T05:21:56.098Z,2.30
2022-08-14T05:23:01.415Z,2.72
2022-08-14T05:25:33.763Z,2.92
2022-08-14T05:28:19.119Z,3.10
2022-08-14T05:30:51.245Z,3.28
2022-08-14T05:33:21.409Z,2.35
2022-08-14T05:35:49.513Z,2.63
2022-08-14T05:38:22.433Z,2.35
2022-08-14T05:41:14.785Z,2.67
2022-08-14T05:43:48.205Z,2.70
2022-08-14T05:46:24.587Z,2.22
2022-08-14T05:48:55.421Z,2.50
2022-08-14T05:51:27.617Z,2.72
2022-08-14T05:54:01.745Z,2.80
2022-08-14T05:56:41.178Z,2.47
2022-08-14T05:59:11.527Z,2.53
2022-08-14T06:01:39.646Z,3.08
2022-08-14T06:04:07.802Z,3.30
2022-08-14T06:06:38.470Z,3.03
2022-08-14T06:09:09.675Z,2.85
2022-08-14T06:11:57.232Z,3.13
2022-08-14T06:14:25.990Z,2.55
2022-08-14T06:16:54.522Z,3.17
2022-08-14T06:19:23.118Z,2.92
2022-08-14T06:21:58.174Z,3.10
2022-08-14T06:24:30.420Z,2.88
2022-08-14T06:27:06.100Z,4.03
2022-08-14T06:29:39.259Z,3.33
2022-08-14T06:32:37.764Z,3.65
2022-08-14T06:35:03.560Z,4.07
2022-08-14T06:37:49.089Z,3.38
2022-08-14T06:40:40.336Z,2.85
2022-08-14T06:43:12.282Z,2.65
2022-08-14T06:45:50.326Z,2.95
2022-08-14T06:48:24.252Z,2.65
2022-08-14T06:50:54.335Z,2.60
2022-08-14T06:53:28.103Z,2.75
2022-08-14T06:58:42.875Z,3.35
2022-08-14T07:01:29.206Z,3.20
2022-08-14T07:04:23.871Z,3.72
2022-08-14T07:07:11.144Z,2.90
2022-08-14T07:09:43.865Z,2.78
2022-08-14T07:12:53.080Z,2.92
2022-08-14T07:15:07.856Z,2.70
2022-08-14T07:17:45.066Z,2.95
2022-08-14T07:20:14.479Z,2.90
2022-08-14T07:22:56.961Z,2.72
2022-08-14T07:25:32.797Z,3.08
2022-08-14T07:28:02.183Z,2.08
2022-08-14T07:30:34.619Z,2.42
2022-08-14T07:35:58.663Z,2.78
2022-08-14T07:38:37.505Z,2.70
2022-08-14T07:41:14.343Z,2.58
2022-08-14T07:43:52.909Z,2.38
2022-08-14T07:46:42.237Z,2.83
2022-08-14T07:49:10.549Z,3.80
2022-08-14T07:51:49.396Z,2.47
2022-08-14T07:54:23.171Z,2.80
2022-08-14T07:57:11.748Z,2.22
2022-08-14T07:59:44.346Z,2.92
2022-08-14T08:02:19.516Z,3.35
2022-08-14T08:04:59.254Z,3.13
2022-08-14T08:07:47.916Z,3.42
2022-08-14T08:11:01.568Z,4.07
2022-08-14T08:13:24.152Z,4.47
2022-08-14T08:15:54.762Z,5.65
2022-08-14T08:18:29.173Z,5.55
2022-08-14T08:21:16.404Z,5.80
2022-08-14T08:23:51.261Z,5.30
2022-08-14T08:26:38.190Z,5.47
2022-08-14T08:29:06.660Z,5.63
2022-08-14T08:31:51.069Z,6.13
2022-08-14T08:34:23.521Z,6.18
2022-08-14T08:36:52.586Z,4.78
2022-08-14T08:39:21.852Z,4.30
2022-08-14T08:44:36.395Z,3.25
2022-08-14T08:47:08.228Z,2.88
2022-08-14T08:49:48.382Z,2.90
2022-08-14T08:52:31.838Z,2.40
2022-08-14T08:55:04.899Z,2.92
2022-08-14T08:57:39.272Z,2.58
2022-08-14T09:00:25.271Z,2.22
2022-08-14T09:03:17.491Z,2.63
2022-08-14T09:05:58.419Z,3.10
2022-08-14T09:08:32.772Z,2.65
2022-08-14T09:11:18.924Z,2.88
2022-08-14T09:13:53.688Z,4.13
2022-08-14T09:16:41.552Z,3.88
2022-08-14T09:19:13.246Z,4.18
2022-08-14T09:21:42.579Z,4.03
2022-08-14T09:24:26.753Z,4.35
2022-08-14T09:26:59.222Z,3.97
2022-08-14T09:29:28.743Z,4.40
2022-08-14T09:32:00.831Z,4.00
2022-08-14T09:34:53.281Z,5.10
2022-08-14T09:37:49.125Z,4.05
2022-08-14T09:40:42.956Z,4.18
2022-08-14T09:43:44.389Z,4.10
2022-08-14T09:46:17.131Z,3.63
2022-08-14T09:49:01.619Z,3.95
2022-08-14T09:51:32.960Z,3.40
2022-08-14T09:54:18.811Z,3.10
2022-08-14T09:57:09.781Z,3.03
2022-08-14T09:59:46.349Z,3.30
2022-08-14T10:02:22.492Z,3.00
2022-08-14T10:07:58.923Z,2.78
2022-08-14T10:10:34.761Z,2.95
2022-08-14T10:13:05.860Z,2.75
2022-08-14T10:15:54.489Z,2.92
2022-08-14T10:18:28.660Z,2.78
2022-08-14T10:21:18.317Z,2.70
2022-08-14T10:23:52.645Z,2.13
2022-08-14T10:26:22.627Z,2.58
2022-08-14T10:29:19.881Z,3.25
2022-08-14T10:32:02.119Z,3.00
2022-08-14T10:34:52.790Z,2.60
2022-08-14T10:37:23.059Z,2.50
2022-08-14T10:40:05.823Z,2.83
2022-08-14T10:42:50.491Z,3.53
2022-08-14T10:45:24.383Z,3.33
2022-08-14T10:48:08.592Z,2.55
2022-08-14T10:50:46.627Z,2.33
2022-08-14T10:53:15.382Z,2.78
2022-08-14T10:55:45.015Z,1.92
2022-08-14T10:58:34.303Z,2.10
2022-08-14T11:01:05.939Z,2.33
2022-08-14T11:03:56.630Z,2.60
2022-08-14T11:06:25.231Z,2.42
2022-08-14T11:08:55.988Z,2.55
2022-08-14T11:11:35.836Z,2.13
2022-08-14T11:14:09.401Z,2.35
2022-08-14T11:16:40.685Z,2.40
2022-08-14T11:19:10.816Z,2.38
2022-08-14T11:21:41.558Z,2.72
2022-08-14T11:24:50.540Z,2.60
2022-08-14T11:27:06.514Z,2.53
2022-08-14T11:29:36.958Z,2.72
2022-08-14T11:32:07.393Z,2.10
2022-08-14T11:34:38.583Z,2.13
2022-08-14T11:37:22.872Z,2.10
2022-08-14T11:40:02.838Z,2.13
2022-08-14T11:42:56.758Z,2.13
2022-08-14T11:45:23.305Z,2.70
2022-08-14T11:48:12.880Z,2.70
2022-08-14T11:50:41.453Z,2.72
2022-08-14T11:53:28.894Z,2.50
2022-08-14T11:56:03.761Z,2.40
2022-08-14T11:58:36.997Z,2.58
2022-08-14T12:01:08.191Z,2.53
2022-08-14T12:03:46.745Z,2.00
2022-08-14T12:06:56.277Z,1.85
2022-08-14T12:09:36.868Z,1.90
2022-08-14T12:12:35.016Z,2.10
2022-08-14T12:15:06.963Z,1.73
2022-08-14T12:20:37.770Z,1.60
2022-08-14T12:23:23.670Z,1.60
2022-08-14T12:26:31.910Z,2.03
2022-08-14T12:29:09.933Z,1.75
2022-08-14T12:31:44.783Z,2.20
2022-08-14T12:34:20.511Z,2.00
2022-08-14T12:37:02.626Z,2.30
2022-08-14T12:39:30.655Z,1.75
2022-08-14T12:42:11.864Z,2.63
2022-08-14T12:44:58.958Z,2.00
2022-08-14T12:47:32.196Z,2.80
2022-08-14T12:50:01.044Z,2.10
2022-08-14T12:52:56.215Z,2.10
2022-08-14T12:56:17.648Z,2.63
2022-08-14T12:58:51.863Z,2.90
2022-08-14T13:02:00.070Z,6.50
2022-08-14T13:04:32.166Z,4.53
2022-08-14T13:07:07.504Z,4.63
2022-08-14T13:09:37.961Z,6.13
2022-08-14T13:12:35.003Z,5.38
2022-08-14T13:14:59.106Z,7.88
2022-08-14T13:17:28.478Z,6.20
2022-08-14T13:19:58.842Z,6.20
2022-08-14T13:22:32.051Z,6.05
2022-08-14T13:25:05.082Z,6.45
2022-08-14T13:27:39.471Z,5.25
2022-08-14T13:30:14.590Z,6.38
2022-08-14T13:32:58.514Z,6.25
2022-08-14T13:35:47.834Z,6.35
2022-08-14T13:38:23.147Z,6.20
2022-08-14T13:40:56.289Z,6.60
2022-08-14T13:43:24.735Z,7.50
2022-08-14T13:46:01.278Z,7.75
2022-08-14T13:48:33.380Z,7.07
2022-08-14T13:51:10.726Z,6.97
2022-08-14T13:54:06.865Z,6.70
2022-08-14T13:56:39.661Z,6.60
2022-08-14T13:59:08.619Z,7.32
2022-08-14T14:01:43.663Z,6.25
2022-08-14T14:04:19.347Z,6.63
2022-08-14T14:07:11.726Z,6.38
2022-08-14T14:09:51.179Z,6.45
2022-08-14T14:12:49.059Z,5.57
2022-08-14T14:15:15.290Z,6.15
2022-08-14T14:17:48.043Z,5.18
2022-08-14T14:20:34.868Z,4.45
2022-08-14T14:23:11.807Z,5.07
2022-08-14T14:25:48.023Z,4.15
2022-08-14T14:28:23.886Z,4.10
2022-08-14T14:30:57.485Z,4.00
2022-08-14T14:33:49.726Z,4.07
2022-08-14T14:36:21.519Z,3.33
2022-08-14T14:38:58.123Z,2.78
2022-08-14T14:41:37.938Z,2.67
2022-08-14T14:44:15.922Z,2.50
2022-08-14T14:46:53.061Z,2.58
2022-08-14T14:49:25.878Z,2.35
2022-08-14T14:54:59.539Z,2.17
2022-08-14T14:57:35.184Z,2.10
2022-08-14T15:00:12.681Z,2.50
2022-08-14T15:02:52.611Z,1.83
2022-08-14T15:05:28.590Z,1.55
2022-08-14T15:07:56.856Z,1.77
2022-08-14T15:10:28.010Z,1.90
2022-08-14T15:13:03.600Z,2.08
2022-08-14T15:18:37.860Z,1.90
2022-08-14T15:21:09.615Z,1.70
2022-08-14T15:23:44.215Z,1.98
2022-08-14T15:26:23.704Z,2.00
2022-08-14T15:29:04.979Z,2.35
2022-08-14T15:31:36.601Z,1.63
2022-08-14T15:37:00.088Z,2.10
2022-08-14T15:39:34.029Z,1.77
2022-08-14T15:42:14.447Z,2.10
2022-08-14T15:44:57.474Z,2.00
2022-08-14T15:47:29.761Z,1.88
2022-08-14T15:50:04.626Z,2.17
2022-08-14T15:52:35.229Z,1.85
2022-08-14T15:55:08.911Z,1.58
2022-08-14T15:57:37.738Z,1.60
2022-08-14T16:00:40.418Z,1.95
2022-08-14T16:03:15.877Z,1.63
2022-08-14T16:05:46.003Z,1.58
2022-08-14T16:08:26.871Z,1.98
2022-08-14T16:11:01.553Z,1.83
2022-08-14T16:13:39.641Z,1.75
2022-08-14T16:16:34.655Z,1.88
2022-08-14T16:19:10.886Z,1.55
2022-08-14T16:22:59.295Z,2.45
2022-08-14T16:24:59.953Z,1.73
2022-08-14T16:27:37.845Z,2.38
2022-08-14T16:30:25.227Z,1.88
2022-08-14T16:32:59.264Z,1.75
2022-08-14T16:35:42.828Z,1.98
2022-08-14T16:38:45.965Z,1.80
2022-08-14T16:41:30.074Z,1.75
2022-08-14T16:44:13.643Z,1.55
2022-08-14T16:46:57.117Z,2.03
2022-08-14T16:50:02.926Z,1.73
2022-08-14T16:52:26.197Z,1.85
2022-08-14T16:55:11.069Z,1.65
2022-08-14T16:57:54.632Z,1.48
2022-08-14T17:00:32.841Z,1.70
2022-08-14T17:03:11.890Z,1.50
2022-08-14T17:05:43.716Z,1.80
2022-08-14T17:08:31.880Z,1.50
2022-08-14T17:11:12.574Z,1.60
2022-08-14T17:13:58.446Z,1.45
2022-08-14T17:16:37.720Z,1.60
2022-08-14T17:19:09.703Z,1.50
2022-08-14T17:21:46.957Z,1.60
2022-08-14T17:24:57.702Z,1.85
2022-08-14T17:27:18.158Z,1.50
2022-08-14T17:29:56.747Z,1.60
2022-08-14T17:32:55.588Z,1.55
2022-08-14T17:35:57.987Z,1.80
2022-08-14T17:38:38.456Z,1.83
2022-08-14T17:44:34.191Z,1.50
2022-08-14T17:47:28.763Z,2.78
2022-08-14T17:51:00.436Z,1.58
2022-08-14T17:52:52.394Z,1.38
2022-08-14T17:56:00.448Z,2.05
2022-08-14T17:58:20.700Z,1.92
2022-08-14T18:00:54.152Z,1.80
2022-08-14T18:06:40.200Z,1.63
2022-08-14T18:08:59.058Z,1.52
2022-08-14T18:11:45.522Z,2.28
2022-08-14T18:14:31.321Z,1.90
2022-08-14T18:17:02.483Z,1.95
2022-08-14T18:19:34.586Z,1.73
2022-08-14T18:22:30.844Z,1.85
2022-08-14T18:24:54.038Z,1.88
2022-08-14T18:27:28.446Z,1.88
2022-08-14T18:30:33.068Z,2.50
2022-08-14T18:32:54.780Z,2.17
2022-08-14T18:35:46.188Z,2.33
2022-08-14T18:38:58.156Z,2.97
2022-08-14T18:41:46.465Z,2.30
2022-08-14T18:44:52.870Z,2.25
2022-08-14T18:47:24.015Z,2.00
2022-08-14T18:49:54.445Z,2.10
2022-08-14T18:52:40.385Z,2.30
2022-08-14T18:55:20.608Z,1.73
2022-08-14T18:57:58.065Z,2.00
2022-08-14T19:00:50.929Z,1.80
2022-08-14T19:03:22.649Z,3.17
2022-08-14T19:05:51.160Z,2.10
2022-08-14T19:08:25.187Z,2.20
2022-08-14T19:10:59.649Z,2.10
2022-08-14T19:13:27.882Z,1.98
2022-08-14T19:16:17.298Z,1.80
2022-08-14T19:19:01.521Z,1.90
2022-08-14T19:24:27.675Z,1.73
2022-08-14T19:27:26.194Z,2.75
2022-08-14T19:30:19.674Z,2.15
2022-08-14T19:32:57.779Z,1.90
2022-08-14T19:38:46.516Z,2.08
2022-08-14T19:41:20.029Z,2.28
2022-08-14T19:44:19.119Z,2.50
2022-08-14T19:46:59.776Z,2.60
2022-08-14T19:52:26.217Z,2.17
2022-08-14T19:54:58.957Z,2.42
2022-08-14T19:57:31.874Z,2.40
2022-08-14T20:00:20.645Z,2.30
2022-08-14T20:03:12.111Z,2.08
2022-08-14T20:05:45.875Z,2.20
2022-08-14T20:09:05.862Z,2.28
2022-08-14T20:12:00.857Z,2.42
2022-08-14T20:14:20.412Z,1.85
2022-08-14T20:17:06.240Z,2.30
2022-08-14T20:19:37.271Z,2.40
2022-08-14T20:22:39.033Z,2.28
2022-08-14T20:25:16.686Z,3.10
2022-08-14T20:27:47.080Z,2.55
2022-08-14T20:30:33.567Z,2.45
2022-08-14T20:33:11.108Z,2.25
2022-08-14T20:35:39.702Z,2.33
2022-08-14T20:38:29.494Z,1.92
2022-08-14T20:41:06.585Z,2.88
2022-08-14T20:44:20.545Z,2.20
2022-08-14T20:49:19.431Z,1.90
2022-08-14T20:51:58.785Z,2.55
2022-08-14T20:54:33.408Z,2.35
2022-08-14T20:57:17.885Z,2.33
2022-08-14T20:59:53.672Z,2.88
2022-08-14T21:02:49.851Z,2.47
2022-08-14T21:05:38.027Z,1.98
2022-08-14T21:08:22.567Z,1.92
2022-08-14T21:10:56.741Z,1.88
2022-08-14T21:14:19.597Z,2.33
2022-08-14T21:19:46.004Z,1.92
2022-08-14T21:25:23.327Z,2.15
2022-08-14T21:27:56.850Z,2.28
2022-08-14T21:30:51.767Z,4.07
2022-08-14T21:33:14.176Z,2.25
2022-08-14T21:38:50.078Z,2.28
2022-08-14T21:41:43.149Z,2.05
2022-08-14T21:44:43.498Z,2.45
2022-08-14T21:47:49.237Z,2.08
2022-08-14T21:50:39.536Z,2.38
2022-08-14T21:53:07.683Z,2.70
2022-08-14T21:55:56.878Z,2.33
2022-08-14T21:58:52.300Z,2.13
2022-08-14T22:01:14.105Z,2.33
2022-08-14T22:04:33.047Z,2.10
2022-08-14T22:09:55.457Z,3.70
2022-08-14T22:12:45.552Z,3.53
2022-08-14T22:15:16.662Z,3.03
2022-08-14T22:17:54.158Z,3.05
2022-08-14T22:20:25.807Z,3.88
2022-08-14T22:22:56.533Z,3.50
2022-08-14T22:28:21.733Z,2.60
2022-08-14T22:31:18.204Z,2.72
2022-08-14T22:34:11.333Z,2.50
2022-08-14T22:36:49.206Z,2.63
2022-08-14T22:39:19.407Z,2.67
2022-08-14T22:42:21.464Z,2.08
2022-08-14T22:44:56.414Z,2.13
2022-08-14T22:47:25.798Z,2.40
2022-08-14T22:50:29.201Z,2.60
2022-08-14T22:55:27.856Z,2.50
2022-08-14T22:58:17.431Z,2.60
2022-08-14T23:00:47.198Z,2.83
2022-08-14T23:03:17.527Z,2.20
2022-08-14T23:05:52.537Z,2.45
2022-08-14T23:08:59.206Z,2.17
2022-08-14T23:11:29.781Z,2.13
2022-08-14T23:14:00.654Z,2.42
2022-08-14T23:16:29.182Z,2.70
2022-08-14T23:18:57.494Z,2.05
2022-08-14T23:21:46.365Z,2.35
2022-08-14T23:24:17.436Z,2.20
2022-08-14T23:27:26.555Z,2.47
2022-08-14T23:30:31.458Z,2.40
2022-08-14T23:33:03.449Z,2.45
2022-08-14T23:35:32.197Z,2.53
2022-08-14T23:38:06.894Z,2.63
2022-08-14T23:43:42.713Z,2.03
2022-08-14T23:46:14.932Z,2.35
2022-08-14T23:48:46.493Z,2.67
2022-08-14T23:51:38.618Z,2.15
2022-08-14T23:54:47.931Z,2.42
2022-08-14T23:57:02.688Z,3.33
2022-08-14T23:59:54.791Z,2.03
